Time;durP1;ratioP1;P1;durP2;ratioP2;P2;SDS_P1;SDS_P2;PMS_P1;PMS_P2;Temp;Humidity;BMP_temperature;BMP_pressure;BME280_temperature;BME280_humidity;BME280_pressure;Samples;Min_cycle;Max_cycle;Signal;HPM_P1;HPM_P2
2022/08/03 00:00:56;;;;;;;6.50;2.65;;;18.60;99.90;;;-144.05;71.18;125687.94;4921812;29;20031;-87
2022/08/03 00:03:22;;;;;;;5.97;2.72;;;18.60;99.90;;;-144.05;71.33;125687.94;4938012;29;20082;-88
2022/08/03 00:05:48;;;;;;;3.80;2.80;;;18.60;99.90;;;-144.05;71.68;125687.94;4939684;29;20043;-90
2022/08/03 00:08:14;;;;;;;4.13;3.15;;;18.60;99.90;;;-144.05;71.97;125687.94;4921932;29;20032;-87
2022/08/03 00:10:40;;;;;;;4.35;3.30;;;18.50;99.90;;;-144.05;72.04;125687.94;4922324;29;20055;-88
2022/08/03 00:13:06;;;;;;;5.65;2.92;;;18.50;99.90;;;-144.05;72.27;125687.94;4933440;29;20031;-87
2022/08/03 00:15:32;;;;;;;5.10;2.75;;;18.50;99.90;;;-144.05;72.28;125687.94;4941424;29;20083;-88
2022/08/03 00:17:59;;;;;;;3.72;2.55;;;18.50;99.90;;;-144.05;72.47;125687.94;4942014;29;20035;-86
2022/08/03 00:20:25;;;;;;;3.88;2.70;;;18.50;99.90;;;-144.05;72.29;125687.94;4941512;29;20135;-90
2022/08/03 00:22:51;;;;;;;6.65;3.40;;;18.50;99.90;;;-144.05;72.39;125687.94;4941227;29;20434;-90
2022/08/03 00:25:18;;;;;;;8.00;3.35;;;18.50;99.90;;;-144.05;72.64;125687.94;4941713;29;20046;-88
2022/08/03 00:27:44;;;;;;;3.28;2.67;;;18.50;99.90;;;-144.05;72.76;125687.94;4941696;29;20102;-90
2022/08/03 00:30:10;;;;;;;8.05;3.00;;;18.40;99.90;;;-144.05;72.91;125687.94;4941734;29;20031;-91
2022/08/03 00:32:37;;;;;;;5.38;3.10;;;18.40;99.90;;;-144.05;72.93;125687.94;4941171;29;20074;-89
2022/08/03 00:35:04;;;;;;;4.00;3.20;;;18.40;99.90;;;-144.05;72.44;125687.94;4958689;29;20101;-89
2022/08/03 00:37:30;;;;;;;4.88;3.08;;;18.50;99.90;;;-144.05;71.69;125687.94;4946829;29;20063;-84
2022/08/03 00:39:56;;;;;;;5.65;3.10;;;18.60;99.90;;;-144.05;70.59;125687.94;4961743;28;20043;-84
2022/08/03 00:42:22;;;;;;;4.68;2.70;;;18.80;99.90;;;-144.05;69.70;125687.94;4961728;28;20033;-85
2022/08/03 00:44:48;;;;;;;7.93;3.15;;;19.00;99.90;;;-144.05;68.99;125687.94;4961985;28;20035;-83
2022/08/03 00:47:14;;;;;;;3.35;2.60;;;19.00;99.90;;;-144.05;68.79;125687.94;4978844;28;20027;-84
2022/08/03 00:49:41;;;;;;;4.82;2.63;;;19.00;99.90;;;-144.05;68.53;125687.94;4961685;28;20050;-84
2022/08/03 00:52:14;;;;;;;7.00;2.70;;;19.10;99.90;;;-144.05;68.42;125687.94;4961763;28;20112;-84
2022/08/03 00:54:40;;;;;;;6.55;3.55;;;19.00;99.90;;;-144.05;68.01;125687.94;4977854;28;20027;-85
2022/08/03 00:57:07;;;;;;;3.72;2.53;;;19.10;99.90;;;-144.05;67.64;125687.94;4978472;28;20091;-85
2022/08/03 00:59:33;;;;;;;4.28;3.10;;;19.10;99.90;;;-144.05;67.55;125687.94;4961498;28;20066;-83
2022/08/03 01:01:59;;;;;;;6.32;3.10;;;19.20;99.90;;;-144.05;67.10;125687.94;4961878;28;20043;-85
2022/08/03 01:04:25;;;;;;;4.88;3.03;;;19.20;99.90;;;-144.05;66.96;125687.94;4958660;28;20066;-88
2022/08/03 01:07:34;;;;;;;9.27;3.33;;;19.20;99.90;;;-144.05;67.29;125687.94;4944138;29;20489;-88
2022/08/03 01:10:23;;;;;;;4.03;3.13;;;19.20;99.90;;;-144.05;67.07;125687.94;4965785;29;20049;-88
2022/08/03 01:13:03;;;;;;;4.07;2.70;;;19.10;99.90;;;-144.05;66.63;125687.94;4948707;29;20408;-86
2022/08/03 01:16:11;;;;;;;6.38;2.83;;;19.20;99.90;;;-144.05;66.38;125687.94;4945382;29;20123;-90
2022/08/03 01:19:08;;;;;;;6.38;2.85;;;19.20;99.90;;;-144.05;65.96;125687.94;4944059;29;20027;-89
2022/08/03 01:22:35;;;;;;;3.65;2.70;;;19.30;99.90;;;-144.05;66.00;125687.94;4959457;29;20027;-88
2022/08/03 01:25:39;;;;;;;3.58;2.80;;;19.30;99.90;;;-144.05;66.00;125687.94;4941287;29;20039;-88
2022/08/03 01:28:53;;;;;;;3.97;2.50;;;19.30;99.90;;;-144.05;65.90;125687.94;4958945;29;20043;-88
2022/08/03 01:31:34;;;;;;;4.88;2.50;;;19.20;99.90;;;-144.05;65.73;125687.94;4960356;29;20027;-88
2022/08/03 01:34:09;;;;;;;5.82;2.60;;;19.30;99.90;;;-144.05;65.26;125687.94;4958867;29;20381;-87
2022/08/03 01:36:47;;;;;;;5.68;2.80;;;19.30;99.90;;;-144.05;65.14;125687.94;4941785;29;20509;-92
2022/08/03 01:39:17;;;;;;;4.50;3.17;;;19.30;99.90;;;-144.05;65.32;125687.94;4941749;29;20035;-89
2022/08/03 01:42:05;;;;;;;4.05;2.70;;;19.30;99.90;;;-144.05;65.60;125687.94;4941955;29;20082;-89
2022/08/03 01:44:40;;;;;;;7.78;3.08;;;19.20;99.90;;;-144.05;66.11;125687.94;4941607;29;20114;-87
2022/08/03 01:47:10;;;;;;;4.68;2.85;;;19.10;99.90;;;-144.05;65.95;125687.94;4941456;29;20027;-91
2022/08/03 01:49:43;;;;;;;7.05;2.78;;;19.10;99.90;;;-144.05;65.81;125687.94;4941042;29;20036;-91
2022/08/03 01:52:16;;;;;;;7.30;2.95;;;19.10;99.90;;;-144.05;66.10;125687.94;4940855;29;20033;-88
2022/08/03 01:54:47;;;;;;;4.05;2.65;;;19.10;99.90;;;-144.05;66.20;125687.94;4938639;29;20531;-89
2022/08/03 01:57:15;;;;;;;4.25;3.20;;;19.00;99.90;;;-144.05;66.39;125687.94;4941858;29;20178;-87
2022/08/03 01:59:47;;;;;;;7.05;3.17;;;19.00;99.90;;;-144.05;66.42;125687.94;4956905;29;20027;-87
2022/08/03 02:02:16;;;;;;;4.38;2.63;;;19.00;99.90;;;-144.05;66.34;125687.94;4950470;29;20516;-91
2022/08/03 02:04:46;;;;;;;6.32;3.08;;;19.00;99.90;;;-144.05;66.90;125687.94;4944353;29;20051;-90
2022/08/03 02:07:15;;;;;;;7.35;3.00;;;18.90;99.90;;;-144.05;67.37;125687.94;4946060;29;20389;-89
2022/08/03 02:09:50;;;;;;;5.07;3.05;;;18.70;99.90;;;-144.05;67.71;125687.94;4945942;29;20054;-89
2022/08/03 02:12:21;;;;;;;4.00;2.80;;;18.70;99.90;;;-144.05;68.39;125687.94;4944830;29;20058;-89
2022/08/03 02:14:49;;;;;;;7.28;3.05;;;18.60;99.90;;;-144.05;68.81;125687.94;4928324;29;20362;-91
2022/08/03 02:17:17;;;;;;;5.25;3.03;;;18.50;99.90;;;-144.05;69.33;125687.94;4927439;29;20028;-89
2022/08/03 02:19:45;;;;;;;4.95;3.17;;;18.40;99.90;;;-144.05;69.24;125687.94;4926713;29;20032;-89
2022/08/03 02:22:13;;;;;;;6.53;2.83;;;18.50;99.90;;;-144.05;69.36;125687.94;4943555;29;20024;-88
2022/08/03 02:24:40;;;;;;;4.95;3.03;;;18.50;99.90;;;-144.05;68.85;125687.94;4943238;29;20445;-88
2022/08/03 02:27:20;;;;;;;9.15;3.33;;;18.60;99.90;;;-144.05;68.17;125687.94;4926568;29;20035;-89
2022/08/03 02:29:55;;;;;;;7.05;3.17;;;18.60;99.90;;;-144.05;68.20;125687.94;4927411;29;20079;-88
2022/08/03 02:32:34;;;;;;;4.93;3.23;;;18.60;99.90;;;-144.05;68.16;125687.94;4926046;29;20520;-89
2022/08/03 02:35:08;;;;;;;6.05;2.95;;;18.60;99.90;;;-144.05;67.81;125687.94;4926892;29;20299;-90
2022/08/03 02:37:45;;;;;;;5.00;3.00;;;18.80;99.90;;;-144.05;67.31;125687.94;4926132;29;20118;-91
2022/08/03 02:40:14;;;;;;;3.45;2.50;;;18.80;99.90;;;-144.05;66.83;125687.94;4926220;29;20091;-90
2022/08/03 02:42:45;;;;;;;5.05;2.85;;;18.90;99.90;;;-144.05;66.64;125687.94;4925938;29;20039;-91
2022/08/03 02:45:15;;;;;;;4.25;2.40;;;18.90;99.90;;;-144.05;66.07;125687.94;4926406;29;20038;-89
2022/08/03 02:47:44;;;;;;;4.70;2.60;;;19.00;99.90;;;-144.05;65.97;125687.94;4929329;29;20067;-91
2022/08/03 02:50:16;;;;;;;4.20;2.58;;;19.00;99.90;;;-144.05;65.72;125687.94;4944093;29;20027;-90
2022/08/03 02:52:48;;;;;;;5.38;2.75;;;19.00;99.90;;;-144.05;65.46;125687.94;4926909;29;20039;-88
2022/08/03 02:55:19;;;;;;;5.80;3.15;;;19.10;99.90;;;-144.05;65.43;125687.94;4940712;29;20067;-87
2022/08/03 02:57:48;;;;;;;3.97;2.65;;;19.10;99.90;;;-144.05;65.18;125687.94;4941174;29;20027;-89
2022/08/03 03:00:15;;;;;;;4.88;2.47;;;19.10;99.90;;;-144.05;65.14;125687.94;4924251;29;20038;-88
2022/08/03 03:02:44;;;;;;;4.28;2.83;;;19.10;99.90;;;-144.05;65.90;125687.94;4922450;29;20498;-87
2022/08/03 03:05:11;;;;;;;4.05;2.97;;;19.00;99.90;;;-144.05;66.07;125687.94;4941232;29;20031;-84
2022/08/03 03:07:40;;;;;;;6.63;2.65;;;18.90;99.90;;;-144.05;66.56;125687.94;4944211;29;20055;-86
2022/08/03 03:10:09;;;;;;;7.75;2.90;;;18.80;99.90;;;-144.05;66.69;125687.94;4943983;29;20039;-90
2022/08/03 03:12:42;;;;;;;4.32;2.85;;;18.80;99.90;;;-144.05;66.98;125687.94;4947548;29;20027;-90
2022/08/03 03:15:09;;;;;;;5.50;2.90;;;18.70;99.90;;;-144.05;67.63;125687.94;4945882;29;20035;-91
2022/08/03 03:17:38;;;;;;;4.43;2.65;;;18.60;99.90;;;-144.05;67.82;125687.94;4945768;29;20500;-91
2022/08/03 03:20:07;;;;;;;5.05;3.30;;;18.60;99.90;;;-144.05;67.83;125687.94;4947142;29;20038;-89
2022/08/03 03:22:35;;;;;;;5.30;3.00;;;18.50;99.90;;;-144.05;67.67;125687.94;4949368;29;20027;-89
2022/08/03 03:25:02;;;;;;;5.38;2.55;;;18.60;99.90;;;-144.05;67.39;125687.94;4944144;29;20031;-90
2022/08/03 03:27:30;;;;;;;6.40;3.20;;;18.60;99.90;;;-144.05;67.10;125687.94;4960206;29;20111;-88
2022/08/03 03:29:57;;;;;;;4.40;2.65;;;18.70;99.90;;;-144.05;67.22;125687.94;4960070;29;20123;-90
2022/08/03 03:32:25;;;;;;;6.10;2.95;;;18.70;99.90;;;-144.05;67.18;125687.94;4942545;29;20035;-89
2022/08/03 03:34:54;;;;;;;7.85;2.65;;;18.70;99.90;;;-144.05;67.01;125687.94;4942213;29;20038;-89
2022/08/03 03:37:20;;;;;;;4.57;3.17;;;18.70;99.90;;;-144.05;67.08;125687.94;4943042;29;20066;-89
2022/08/03 03:39:46;;;;;;;5.22;3.03;;;18.70;99.90;;;-144.05;67.21;125687.94;4943028;29;20023;-89
2022/08/03 03:42:12;;;;;;;7.47;3.38;;;18.60;99.90;;;-144.05;67.67;125687.94;4943298;29;20031;-91
2022/08/03 03:44:39;;;;;;;5.47;3.03;;;18.50;99.90;;;-144.05;67.84;125687.94;4942397;29;20125;-90
2022/08/03 03:47:05;;;;;;;4.10;2.75;;;18.40;99.90;;;-144.05;68.33;125687.94;4943409;29;20031;-89
2022/08/03 03:49:31;;;;;;;3.72;2.63;;;18.30;99.90;;;-144.05;69.01;125687.94;4942262;29;20035;-88
2022/08/03 03:51:57;;;;;;;3.65;2.38;;;18.20;99.90;;;-144.05;69.46;125687.94;4960123;29;20039;-88
2022/08/03 03:54:23;;;;;;;4.05;2.95;;;18.00;99.90;;;-144.05;70.36;125687.94;4960258;29;20043;-90
2022/08/03 03:56:49;;;;;;;4.53;3.10;;;17.90;99.90;;;-144.05;71.18;125687.94;4942788;29;20028;-88
2022/08/03 03:59:15;;;;;;;3.97;3.00;;;17.80;99.90;;;-144.05;71.82;125687.94;4941891;29;20461;-89
2022/08/03 04:01:41;;;;;;;5.07;3.05;;;17.70;99.90;;;-144.05;72.15;125687.94;4944001;29;20039;-87
2022/08/03 04:12:30;;;;;;;6.90;3.08;;;17.60;99.90;;;-144.05;73.55;125687.94;4979387;28;20082;-89
2022/08/03 04:15:00;;;;;;;4.85;3.15;;;17.50;99.90;;;-144.05;73.81;125687.94;4962480;28;20024;-90
2022/08/03 04:17:31;;;;;;;5.88;2.75;;;17.50;99.90;;;-144.05;73.85;125687.94;4962090;28;20108;-87
2022/08/03 04:20:02;;;;;;;5.88;2.83;;;17.50;99.90;;;-144.05;74.14;125687.94;4960923;29;20027;-86
2022/08/03 04:22:34;;;;;;;5.18;2.60;;;17.40;99.90;;;-144.05;74.64;125687.94;4961243;29;20047;-87
2022/08/03 04:25:13;;;;;;;4.95;3.00;;;17.40;99.90;;;-144.05;75.08;125687.94;4960919;29;20035;-88
2022/08/03 04:27:42;;;;;;;4.15;2.72;;;17.40;99.90;;;-144.05;75.47;125687.94;4960614;29;20066;-89
2022/08/03 04:30:10;;;;;;;5.28;3.63;;;17.30;99.90;;;-144.05;75.54;125687.94;4961037;28;20034;-89
2022/08/03 04:32:40;;;;;;;7.75;3.75;;;17.30;99.90;;;-144.05;75.87;125687.94;4962565;28;20027;-87
2022/08/03 04:35:08;;;;;;;4.35;2.83;;;17.30;99.90;;;-144.05;76.05;125687.94;4962611;28;20042;-88
2022/08/03 04:37:51;;;;;;;6.22;3.25;;;17.30;99.90;;;-144.05;76.50;125687.94;4962574;28;20027;-90
2022/08/03 04:40:41;;;;;;;7.05;3.72;;;17.30;99.90;;;-144.05;76.23;125687.94;4946072;28;20039;-86
2022/08/03 04:43:13;;;;;;;6.32;3.38;;;17.40;99.90;;;-144.05;76.15;125687.94;4961324;29;20054;-86
2022/08/03 04:45:41;;;;;;;10.43;3.35;;;17.50;99.90;;;-144.05;75.82;125687.94;4944838;29;20034;-88
2022/08/03 04:48:08;;;;;;;5.45;3.03;;;17.50;99.90;;;-144.05;75.24;125687.94;4944117;29;20051;-87
2022/08/03 04:50:35;;;;;;;4.75;2.92;;;17.60;99.90;;;-144.05;75.20;125687.94;4959787;29;20090;-87
2022/08/03 04:53:02;;;;;;;9.90;3.50;;;17.70;99.90;;;-144.05;74.79;125687.94;4943342;29;20477;-87
2022/08/03 04:55:33;;;;;;;6.28;2.95;;;17.80;99.90;;;-144.05;74.66;125687.94;4942743;29;20039;-86
2022/08/03 04:58:02;;;;;;;6.75;3.20;;;17.80;99.90;;;-144.05;74.07;125687.94;4942679;29;20031;-87
2022/08/03 05:00:28;;;;;;;5.53;2.88;;;18.00;99.90;;;-144.05;73.54;125687.94;4943738;29;20058;-88
2022/08/03 05:02:55;;;;;;;4.93;3.17;;;18.10;99.90;;;-144.05;73.35;125687.94;4943640;29;20028;-88
2022/08/03 05:05:22;;;;;;;4.95;2.75;;;18.10;99.90;;;-144.05;73.21;125687.94;4943839;29;20057;-89
2022/08/03 05:07:48;;;;;;;4.65;2.67;;;18.20;99.90;;;-144.05;73.40;125687.94;4942893;29;20142;-87
2022/08/03 05:10:15;;;;;;;3.95;2.75;;;18.20;99.90;;;-144.05;73.45;125687.94;4942980;29;20031;-88
2022/08/03 05:12:42;;;;;;;5.28;3.03;;;18.30;99.90;;;-144.05;73.48;125687.94;4943012;29;20035;-88
2022/08/03 05:15:09;;;;;;;8.80;3.33;;;18.40;99.90;;;-144.05;73.11;125687.94;4960399;29;20119;-89
2022/08/03 05:17:35;;;;;;;6.18;3.03;;;18.50;99.90;;;-144.05;72.22;125687.94;4943149;29;20143;-87
2022/08/03 05:20:03;;;;;;;5.90;3.00;;;18.80;99.90;;;-144.05;71.44;125687.94;4959348;29;20031;-89
2022/08/03 05:22:29;;;;;;;5.65;2.58;;;19.10;99.90;;;-144.05;70.49;125687.94;4942379;29;20080;-88
2022/08/03 05:24:55;;;;;;;4.78;2.63;;;19.30;99.90;;;-144.05;69.75;125687.94;4959361;29;20023;-87
2022/08/03 05:27:21;;;;;;;5.85;2.90;;;19.50;99.90;;;-144.05;68.84;125687.94;4943475;29;20103;-88
2022/08/03 05:29:50;;;;;;;5.72;2.50;;;19.70;99.90;;;-144.05;68.07;125687.94;4943778;29;20055;-87
2022/08/03 05:32:17;;;;;;;3.63;2.47;;;19.90;99.90;;;-144.05;66.87;125687.94;4944391;29;20039;-90
2022/08/03 05:34:43;;;;;;;4.65;2.33;;;20.10;99.90;;;-144.05;65.07;125687.94;4943940;29;20047;-86
2022/08/03 05:37:10;;;;;;;4.25;2.08;;;20.40;99.90;;;-144.05;63.47;125687.94;4943590;29;20122;-88
2022/08/03 05:39:37;;;;;;;5.07;2.40;;;20.70;99.90;;;-144.05;61.45;125687.94;4943529;29;20058;-88
2022/08/03 05:42:03;;;;;;;3.28;2.40;;;20.90;99.90;;;-144.05;60.70;125687.94;4946217;29;20031;-90
2022/08/03 05:44:30;;;;;;;3.13;2.08;;;21.10;99.90;;;-144.05;59.40;125687.94;4949639;29;20484;-91
2022/08/03 05:46:57;;;;;;;6.18;2.17;;;21.40;99.90;;;-144.05;58.04;125687.94;4951867;29;20470;-92
2022/08/03 05:49:22;;;;;;;3.42;2.35;;;21.70;99.90;;;-144.05;56.63;125687.94;4949861;29;20501;-90
2022/08/03 05:51:49;;;;;;;3.92;2.00;;;22.00;99.90;;;-144.05;55.86;125687.94;4949323;29;20043;-90
2022/08/03 05:54:15;;;;;;;5.35;2.10;;;22.30;99.90;;;-144.05;55.24;125687.94;4949109;29;20137;-88
2022/08/03 05:56:41;;;;;;;3.63;2.05;;;22.40;99.90;;;-144.05;54.23;125687.94;4955039;29;20035;-88
2022/08/03 05:59:08;;;;;;;3.60;1.90;;;22.60;99.90;;;-144.05;54.09;125687.94;4974120;29;20030;-84
2022/08/03 06:01:34;;;;;;;4.22;2.30;;;22.70;99.90;;;-144.05;54.49;125687.94;4957162;29;20023;-86
2022/08/03 06:04:00;;;;;;;7.72;2.25;;;22.90;99.90;;;-144.05;53.21;125687.94;4947152;29;20015;-90
2022/08/03 06:06:26;;;;;;;4.10;2.35;;;23.10;99.90;;;-144.05;52.91;125687.94;4946555;29;20436;-89
2022/08/03 06:08:52;;;;;;;4.25;2.85;;;23.30;99.90;;;-144.05;53.14;125687.94;4947302;29;20055;-87
2022/08/03 06:11:19;;;;;;;9.63;2.85;;;23.50;99.90;;;-144.05;52.31;125687.94;4949470;29;20528;-87
2022/08/03 06:13:47;;;;;;;7.68;3.15;;;23.70;99.90;;;-144.05;51.63;125687.94;4970159;29;20054;-85
2022/08/03 06:16:13;;;;;;;10.32;3.78;;;24.00;99.90;;;-144.05;50.29;125687.94;4958530;29;20038;-88
2022/08/03 06:18:40;;;;;;;9.15;3.60;;;24.30;99.90;;;-144.05;49.64;125687.94;4951839;29;20015;-85
2022/08/03 06:21:06;;;;;;;10.02;3.90;;;24.50;99.90;;;-144.05;48.42;125687.94;4945975;29;20549;-88
2022/08/03 06:23:32;;;;;;;12.13;3.80;;;24.80;99.90;;;-144.05;48.51;125687.94;4946081;29;20058;-87
2022/08/03 06:25:58;;;;;;;6.53;3.30;;;25.00;99.90;;;-144.05;47.90;125687.94;4963231;29;20489;-88
2022/08/03 06:28:24;;;;;;;7.90;3.20;;;25.30;99.90;;;-144.05;46.38;125687.94;4945806;29;20031;-90
2022/08/03 06:30:50;;;;;;;13.13;3.63;;;25.60;99.90;;;-144.05;46.62;125687.94;4946389;29;20501;-85
2022/08/03 06:33:17;;;;;;;7.75;3.00;;;25.90;99.90;;;-144.05;45.08;125687.94;4964401;29;20062;-89
2022/08/03 06:35:44;;;;;;;5.78;2.58;;;26.10;99.90;;;-144.05;44.20;125687.94;4964621;29;20055;-87
2022/08/03 06:38:10;;;;;;;6.20;2.03;;;26.20;99.90;;;-144.05;42.93;125687.94;4948924;29;20033;-85
2022/08/03 06:40:39;;;;;;;5.28;2.00;;;26.20;99.90;;;-144.05;44.53;125687.94;4948163;29;20051;-85
2022/08/03 06:43:07;;;;;;;3.65;1.67;;;26.10;99.90;;;-144.05;43.42;125687.94;4948538;29;20039;-86
2022/08/03 06:45:35;;;;;;;4.65;1.73;;;26.20;99.90;;;-144.05;42.89;125687.94;4950042;29;20095;-87
2022/08/03 06:48:11;;;;;;;4.85;1.85;;;26.20;99.90;;;-144.05;42.58;125687.94;4946056;29;20580;-86
2022/08/03 06:50:40;;;;;;;3.47;1.60;;;26.20;99.90;;;-144.05;42.88;125687.94;4944847;29;20031;-87
2022/08/03 06:53:10;;;;;;;2.45;1.55;;;26.20;99.90;;;-144.05;42.58;125687.94;4945260;29;20547;-88
2022/08/03 06:55:37;;;;;;;2.67;1.40;;;26.50;99.90;;;-144.05;41.77;125687.94;4946951;29;20120;-87
2022/08/03 06:58:03;;;;;;;3.67;1.70;;;26.80;99.90;;;-144.05;40.86;125687.94;4949107;28;20497;-85
2022/08/03 07:00:29;;;;;;;5.65;1.50;;;27.10;99.90;;;-144.05;40.32;125687.94;4945425;29;20050;-87
2022/08/03 07:02:56;;;;;;;3.78;1.63;;;27.30;99.90;;;-144.05;40.48;125687.94;4947598;29;21068;-89
2022/08/03 07:05:21;;;;;;;7.80;2.00;;;27.50;99.90;;;-144.05;40.93;125687.94;4944334;29;20143;-88
2022/08/03 07:07:48;;;;;;;4.95;1.80;;;27.50;99.90;;;-144.05;39.73;125687.94;4964778;29;20521;-86
2022/08/03 07:10:14;;;;;;;3.72;1.48;;;27.80;99.90;;;-144.05;39.42;125687.94;4947390;29;20031;-87
2022/08/03 07:12:40;;;;;;;2.78;1.83;;;27.80;99.90;;;-144.05;39.13;125687.94;4946099;29;20051;-87
2022/08/03 07:15:07;;;;;;;5.18;1.70;;;28.00;99.90;;;-144.05;39.19;125687.94;4964253;29;20106;-86
2022/08/03 07:17:35;;;;;;;4.05;1.95;;;28.00;99.90;;;-144.05;39.08;125687.94;4946854;29;20027;-85
2022/08/03 07:20:07;;;;;;;4.03;1.65;;;28.10;99.90;;;-144.05;38.65;125687.94;4949023;29;20090;-85
2022/08/03 07:22:35;;;;;;;2.80;1.63;;;28.10;99.90;;;-144.05;38.86;125687.94;4963683;28;20031;-85
2022/08/03 07:25:01;;;;;;;7.57;1.52;;;28.00;99.90;;;-144.05;38.81;125687.94;4963553;28;20054;-87
2022/08/03 07:27:29;;;;;;;4.63;1.92;;;28.20;99.90;;;-144.05;38.41;125687.94;4962251;29;20044;-89
2022/08/03 07:29:57;;;;;;;4.28;1.80;;;28.50;99.90;;;-144.05;38.08;125687.94;4942607;29;20078;-86
2022/08/03 07:32:27;;;;;;;3.72;2.00;;;28.50;99.90;;;-144.05;37.87;125687.94;4961432;29;20031;-87
2022/08/03 07:34:53;;;;;;;4.68;1.63;;;28.80;99.90;;;-144.05;36.61;125687.94;4960783;29;20082;-87
2022/08/03 07:37:21;;;;;;;5.45;2.00;;;29.00;99.90;;;-144.05;37.03;125687.94;4941480;29;20028;-89
2022/08/03 07:39:48;;;;;;;6.07;1.83;;;28.90;99.90;;;-144.05;36.99;125687.94;4943533;29;20027;-88
2022/08/03 07:42:14;;;;;;;2.65;1.40;;;28.80;99.90;;;-144.05;37.56;125687.94;4941172;29;20082;-89
2022/08/03 07:44:41;;;;;;;3.08;1.40;;;28.80;99.90;;;-144.05;37.03;125687.94;4941509;29;20038;-88
2022/08/03 07:47:07;;;;;;;2.63;1.70;;;29.00;99.90;;;-144.05;37.06;125687.94;4940719;29;20027;-88
2022/08/03 07:49:33;;;;;;;2.20;1.67;;;29.20;99.90;;;-144.05;36.46;125687.94;4940833;29;20050;-88
2022/08/03 07:54:43;;;;;;;2.85;1.80;;;29.10;99.90;;;-144.05;37.17;125687.94;4960258;29;20054;-88
2022/08/03 07:57:09;;;;;;;7.07;1.88;;;29.40;99.90;;;-144.05;36.18;125687.94;4943680;29;20035;-87
2022/08/03 07:59:37;;;;;;;4.85;2.08;;;29.70;99.60;;;-144.05;36.06;125687.94;4943979;29;20031;-88
2022/08/03 08:02:02;;;;;;;3.80;2.20;;;29.70;98.80;;;-144.05;35.95;125687.94;4960849;29;20027;-87
2022/08/03 08:04:29;;;;;;;3.15;2.03;;;29.50;98.10;;;-144.05;36.12;125687.94;4944381;29;20031;-88
2022/08/03 08:06:54;;;;;;;5.88;1.80;;;29.80;98.70;;;-144.05;35.18;125687.94;4943827;29;20227;-88
2022/08/03 08:09:20;;;;;;;5.18;1.67;;;30.10;97.20;;;-144.05;34.83;125687.94;4945837;29;20031;-88
2022/08/03 08:11:46;;;;;;;2.60;1.60;;;30.40;97.10;;;-144.05;34.36;125687.94;4945053;29;20034;-88
2022/08/03 08:14:12;;;;;;;2.40;1.50;;;30.90;96.90;;;-144.05;33.56;125687.94;4922809;29;20447;-88
2022/08/03 08:16:38;;;;;;;3.40;1.70;;;31.10;94.90;;;-144.05;32.96;125687.94;4922459;29;20528;-87
2022/08/03 08:19:05;;;;;;;5.10;1.40;;;31.20;93.20;;;-144.05;33.56;125687.94;4905891;29;20171;-87
2022/08/03 08:21:31;;;;;;;4.15;1.80;;;31.20;92.10;;;-144.05;32.59;125687.94;4910575;29;20121;-85
2022/08/03 08:23:56;;;;;;;3.47;1.60;;;31.40;90.00;;;-144.05;32.83;125687.94;4938419;29;20044;-88
2022/08/03 08:26:23;;;;;;;3.03;1.80;;;31.10;87.90;;;-144.05;33.96;125687.94;4911790;29;20067;-86
2022/08/03 08:28:51;;;;;;;6.45;1.73;;;30.30;89.80;;;-144.05;34.64;125687.94;4924460;29;20029;-85
2022/08/03 08:31:17;;;;;;;4.10;1.65;;;30.20;91.40;;;-144.05;33.86;125687.94;4909456;29;20039;-85
2022/08/03 08:33:44;;;;;;;3.88;1.50;;;30.50;90.90;;;-144.05;33.46;125687.94;4927099;29;20481;-85
2022/08/03 08:36:10;;;;;;;4.80;1.70;;;30.80;90.90;;;-144.05;32.90;125687.94;4930647;29;20040;-88
2022/08/03 08:38:35;;;;;;;3.60;1.73;;;31.00;89.70;;;-144.05;32.07;125687.94;4927437;29;20080;-87
2022/08/03 08:41:03;;;;;;;4.45;1.83;;;31.20;86.30;;;-144.05;32.92;125687.94;4905716;29;20506;-88
2022/08/03 08:43:29;;;;;;;2.78;1.80;;;31.00;85.60;;;-144.05;33.51;125687.94;4922817;29;20123;-86
2022/08/03 08:45:58;;;;;;;4.05;1.77;;;30.90;88.60;;;-144.05;33.92;125687.94;4923643;29;20112;-89
2022/08/03 08:48:28;;;;;;;5.20;2.10;;;30.50;88.00;;;-144.05;35.19;125687.94;4908528;29;20091;-86
2022/08/03 08:50:57;;;;;;;2.97;1.80;;;29.80;88.80;;;-144.05;35.42;125687.94;4922804;29;20032;-89
2022/08/03 08:53:31;;;;;;;5.60;1.70;;;29.90;91.60;;;-144.05;34.20;125687.94;4922441;29;20074;-87
2022/08/03 08:56:01;;;;;;;4.35;1.80;;;30.50;91.10;;;-144.05;33.30;125687.94;4922357;29;20119;-86
2022/08/03 08:58:36;;;;;;;6.53;1.58;;;30.90;88.00;;;-144.05;32.81;125687.94;4921058;29;20024;-87
2022/08/03 09:01:02;;;;;;;;;;;31.30;88.10;;;-144.05;32.34;125687.94;4919879;29;20131;-89
2022/08/03 09:03:29;;;;;;;8.32;1.65;;;31.60;85.00;;;-144.05;32.57;125687.94;4920604;29;19915;-88
2022/08/03 09:05:55;;;;;;;2.95;1.30;;;31.90;84.40;;;-144.05;32.27;125687.94;4918850;29;20506;-88
2022/08/03 09:08:22;;;;;;;3.63;1.63;;;31.90;83.60;;;-144.05;31.86;125687.94;4920746;29;20577;-88
2022/08/03 09:10:48;;;;;;;2.47;1.70;;;32.00;81.40;;;-144.05;31.95;125687.94;4922510;29;20082;-87
2022/08/03 09:13:14;;;;;;;5.35;1.80;;;32.30;82.30;;;-144.05;32.16;125687.94;4942486;29;20027;-85
2022/08/03 09:15:41;;;;;;;2.78;1.92;;;32.10;80.70;;;-144.05;31.57;125687.94;4944590;29;20477;-86
2022/08/03 09:18:08;;;;;;;4.85;2.30;;;32.40;82.10;;;-144.05;30.60;125687.94;4943419;29;20085;-87
2022/08/03 09:20:37;;;;;;;7.47;2.53;;;32.60;77.40;;;-144.05;31.20;125687.94;4945645;29;20062;-87
2022/08/03 09:23:08;;;;;;;2.33;1.80;;;32.50;76.70;;;-144.05;31.71;125687.94;4943073;29;20031;-87
2022/08/03 09:25:42;;;;;;;6.65;2.13;;;32.40;78.10;;;-144.05;30.92;125687.94;4943450;29;20519;-85
2022/08/03 09:28:14;;;;;;;3.13;1.83;;;32.50;75.50;;;-144.05;30.49;125687.94;4960725;29;20042;-85
2022/08/03 09:30:44;;;;;;;4.10;1.80;;;32.70;75.40;;;-144.05;30.63;125687.94;4942849;29;20115;-86
2022/08/03 09:33:17;;;;;;;7.03;2.08;;;32.80;74.90;;;-144.05;30.21;125687.94;4959288;29;20054;-87
2022/08/03 09:35:48;;;;;;;3.58;2.03;;;32.90;73.90;;;-144.05;29.68;125687.94;4944633;29;20051;-87
2022/08/03 09:38:23;;;;;;;3.13;1.90;;;33.10;72.00;;;-144.05;30.28;125687.94;4941269;29;20165;-88
2022/08/03 09:40:49;;;;;;;5.85;2.10;;;33.20;73.60;;;-144.05;29.89;125687.94;4943788;29;20055;-89
2022/08/03 09:43:16;;;;;;;3.05;2.10;;;33.10;71.90;;;-144.05;30.09;125687.94;4943017;29;20039;-86
2022/08/03 09:45:45;;;;;;;4.40;2.15;;;33.10;71.10;;;-144.05;29.69;125687.94;4943570;29;20031;-88
2022/08/03 09:48:29;;;;;;;6.20;2.15;;;32.90;68.60;;;-144.05;29.77;125687.94;4942689;29;20027;-87
2022/08/03 09:51:02;;;;;;;5.85;1.80;;;33.00;70.90;;;-144.05;30.10;125687.94;4959998;29;20038;-87
2022/08/03 09:53:28;;;;;;;3.28;1.52;;;33.10;71.30;;;-144.05;29.90;125687.94;4942627;29;20571;-88
2022/08/03 09:56:02;;;;;;;4.07;1.95;;;33.30;71.10;;;-144.05;29.51;125687.94;4942417;29;20043;-89
2022/08/03 09:58:30;;;;;;;2.53;1.67;;;33.50;69.50;;;-144.05;29.29;125687.94;4942450;29;20437;-87
2022/08/03 10:01:03;;;;;;;5.22;1.70;;;33.50;68.90;;;-144.05;28.84;125687.94;4941391;29;20034;-88
2022/08/03 10:03:34;;;;;;;3.08;1.75;;;33.60;67.40;;;-144.05;29.32;125687.94;4940831;29;20035;-88
2022/08/03 10:06:15;;;;;;;7.30;1.58;;;33.40;68.00;;;-144.05;29.30;125687.94;4959133;29;20035;-88
2022/08/03 10:08:41;;;;;;;10.77;1.80;;;33.50;67.90;;;-144.05;29.04;125687.94;4957855;29;20035;-91
2022/08/03 10:11:07;;;;;;;8.38;1.92;;;33.40;67.10;;;-144.05;29.01;125687.94;4960845;29;20035;-89
2022/08/03 10:13:35;;;;;;;5.15;2.00;;;33.50;67.30;;;-144.05;29.38;125687.94;4946086;29;20043;-87
2022/08/03 10:16:03;;;;;;;4.60;1.83;;;33.60;68.20;;;-144.05;29.17;125687.94;4947279;29;20112;-87
2022/08/03 10:18:30;;;;;;;5.15;1.83;;;33.30;66.50;;;-144.05;29.74;125687.94;4943772;29;20035;-88
2022/08/03 10:21:07;;;;;;;4.95;1.63;;;33.20;67.00;;;-144.05;28.71;125687.94;4944144;29;20032;-87